sensor_id;sensor_type;location;lat;lon;timestamp;temperature;humidity
17154;DHT22;8692;52.164;7.558;2024-03-02T00:01:51;6.90;99.90
17154;DHT22;8692;52.164;7.558;2024-03-02T00:04:19;6.90;99.90
17154;DHT22;8692;52.164;7.558;2024-03-02T00:06:47;6.90;99.90
17154;DHT22;8692;52.164;7.558;2024-03-02T00:09:15;6.90;99.90
17154;DHT22;8692;52.164;7.558;2024-03-02T00:11:43;6.90;99.90
17154;DHT22;8692;52.164;7.558;2024-03-02T00:14:13;6.90;99.90
17154;DHT22;8692;52.164;7.558;2024-03-02T00:16:41;6.90;99.90
17154;DHT22;8692;52.164;7.558;2024-03-02T00:19:10;6.90;99.90
17154;DHT22;8692;52.164;7.558;2024-03-02T00:21:38;6.90;99.90
17154;DHT22;8692;52.164;7.558;2024-03-02T00:24:17;6.90;99.90
17154;DHT22;8692;52.164;7.558;2024-03-02T00:26:46;6.90;99.90
17154;DHT22;8692;52.164;7.558;2024-03-02T00:29:16;6.80;99.90
17154;DHT22;8692;52.164;7.558;2024-03-02T00:31:46;6.80;99.90
17154;DHT22;8692;52.164;7.558;2024-03-02T00:34:15;6.80;99.90
17154;DHT22;8692;52.164;7.558;2024-03-02T00:36:45;6.80;99.90
17154;DHT22;8692;52.164;7.558;2024-03-02T00:39:15;6.80;99.90
17154;DHT22;8692;52.164;7.558;2024-03-02T00:41:44;6.80;99.90
17154;DHT22;8692;52.164;7.558;2024-03-02T00:44:13;6.80;99.90
17154;DHT22;8692;52.164;7.558;2024-03-02T00:46:44;6.70;99.90
17154;DHT22;8692;52.164;7.558;2024-03-02T00:49:17;6.70;99.90
17154;DHT22;8692;52.164;7.558;2024-03-02T00:51:47;6.70;99.90
17154;DHT22;8692;52.164;7.558;2024-03-02T00:54:19;6.70;99.90
17154;DHT22;8692;52.164;7.558;2024-03-02T00:56:47;6.60;99.90
17154;DHT22;8692;52.164;7.558;2024-03-02T00:59:16;6.70;99.90
17154;DHT22;8692;52.164;7.558;2024-03-02T01:01:45;6.60;99.90
17154;DHT22;8692;52.164;7.558;2024-03-02T01:04:13;6.60;99.90
17154;DHT22;8692;52.164;7.558;2024-03-02T01:06:42;6.60;99.90
17154;DHT22;8692;52.164;7.558;2024-03-02T01:09:10;6.60;99.90
17154;DHT22;8692;52.164;7.558;2024-03-02T01:11:39;6.60;99.90
17154;DHT22;8692;52.164;7.558;2024-03-02T01:14:07;6.50;99.90
17154;DHT22;8692;52.164;7.558;2024-03-02T01:16:35;6.60;99.90
17154;DHT22;8692;52.164;7.558;2024-03-02T01:19:04;6.60;99.90
17154;DHT22;8692;52.164;7.558;2024-03-02T01:21:32;6.60;99.90
17154;DHT22;8692;52.164;7.558;2024-03-02T01:24:02;6.60;99.90
17154;DHT22;8692;52.164;7.558;2024-03-02T01:26:30;6.60;99.90
17154;DHT22;8692;52.164;7.558;2024-03-02T01:28:58;6.60;99.90
17154;DHT22;8692;52.164;7.558;2024-03-02T01:31:26;6.50;99.90
17154;DHT22;8692;52.164;7.558;2024-03-02T01:33:54;6.50;99.90
17154;DHT22;8692;52.164;7.558;2024-03-02T01:36:24;6.50;99.90
17154;DHT22;8692;52.164;7.558;2024-03-02T01:38:52;6.50;99.90
17154;DHT22;8692;52.164;7.558;2024-03-02T01:41:20;6.50;99.90
17154;DHT22;8692;52.164;7.558;2024-03-02T01:43:48;6.50;99.90
17154;DHT22;8692;52.164;7.558;2024-03-02T01:46:16;6.50;99.90
17154;DHT22;8692;52.164;7.558;2024-03-02T01:48:44;6.50;99.90
17154;DHT22;8692;52.164;7.558;2024-03-02T01:51:12;6.50;99.90
17154;DHT22;8692;52.164;7.558;2024-03-02T01:53:42;6.50;99.90
17154;DHT22;8692;52.164;7.558;2024-03-02T01:56:10;6.50;99.90
17154;DHT22;8692;52.164;7.558;2024-03-02T01:58:38;6.50;99.90
17154;DHT22;8692;52.164;7.558;2024-03-02T02:01:06;6.50;99.90
17154;DHT22;8692;52.164;7.558;2024-03-02T02:03:34;6.50;99.90
17154;DHT22;8692;52.164;7.558;2024-03-02T02:06:02;6.50;99.90
17154;DHT22;8692;52.164;7.558;2024-03-02T02:08:31;6.50;99.90
17154;DHT22;8692;52.164;7.558;2024-03-02T02:11:00;6.50;99.90
17154;DHT22;8692;52.164;7.558;2024-03-02T02:13:28;6.40;99.90
17154;DHT22;8692;52.164;7.558;2024-03-02T02:16:04;6.40;99.90
17154;DHT22;8692;52.164;7.558;2024-03-02T02:18:32;6.40;99.90
17154;DHT22;8692;52.164;7.558;2024-03-02T02:21:00;6.50;99.90
17154;DHT22;8692;52.164;7.558;2024-03-02T02:23:29;6.50;99.90
17154;DHT22;8692;52.164;7.558;2024-03-02T02:25:57;6.40;99.90
17154;DHT22;8692;52.164;7.558;2024-03-02T02:28:25;6.40;99.90
17154;DHT22;8692;52.164;7.558;2024-03-02T02:30:54;6.40;99.90
17154;DHT22;8692;52.164;7.558;2024-03-02T02:33:23;6.40;99.90
17154;DHT22;8692;52.164;7.558;2024-03-02T02:35:52;6.40;99.90
17154;DHT22;8692;52.164;7.558;2024-03-02T02:38:20;6.40;99.90
17154;DHT22;8692;52.164;7.558;2024-03-02T02:40:49;6.40;99.90
17154;DHT22;8692;52.164;7.558;2024-03-02T02:43:17;6.40;99.90
17154;DHT22;8692;52.164;7.558;2024-03-02T02:45:45;6.40;99.90
17154;DHT22;8692;52.164;7.558;2024-03-02T02:48:13;6.30;99.90
17154;DHT22;8692;52.164;7.558;2024-03-02T02:50:41;6.40;99.90
17154;DHT22;8692;52.164;7.558;2024-03-02T02:53:09;6.30;99.90
17154;DHT22;8692;52.164;7.558;2024-03-02T02:55:39;6.30;99.90
17154;DHT22;8692;52.164;7.558;2024-03-02T02:58:09;6.30;99.90
17154;DHT22;8692;52.164;7.558;2024-03-02T03:00:37;6.30;99.90
17154;DHT22;8692;52.164;7.558;2024-03-02T03:03:05;6.30;99.90
17154;DHT22;8692;52.164;7.558;2024-03-02T03:05:35;6.20;99.90
17154;DHT22;8692;52.164;7.558;2024-03-02T03:08:02;6.20;99.90
17154;DHT22;8692;52.164;7.558;2024-03-02T03:10:30;6.20;99.90
17154;DHT22;8692;52.164;7.558;2024-03-02T03:12:59;6.10;99.90
17154;DHT22;8692;52.164;7.558;2024-03-02T03:15:29;6.10;99.90
17154;DHT22;8692;52.164;7.558;2024-03-02T03:17:57;6.20;99.90
17154;DHT22;8692;52.164;7.558;2024-03-02T03:20:25;6.20;99.90
17154;DHT22;8692;52.164;7.558;2024-03-02T03:22:53;6.10;99.90
17154;DHT22;8692;52.164;7.558;2024-03-02T03:25:21;6.10;99.90
17154;DHT22;8692;52.164;7.558;2024-03-02T03:27:49;6.10;99.90
17154;DHT22;8692;52.164;7.558;2024-03-02T03:30:19;6.10;99.90
17154;DHT22;8692;52.164;7.558;2024-03-02T03:32:48;6.10;99.90
17154;DHT22;8692;52.164;7.558;2024-03-02T03:35:16;6.00;99.90
17154;DHT22;8692;52.164;7.558;2024-03-02T03:37:45;6.10;99.90
17154;DHT22;8692;52.164;7.558;2024-03-02T03:40:13;6.00;99.90
17154;DHT22;8692;52.164;7.558;2024-03-02T03:42:41;6.00;99.90
17154;DHT22;8692;52.164;7.558;2024-03-02T03:45:09;6.00;99.90
17154;DHT22;8692;52.164;7.558;2024-03-02T03:47:37;6.00;99.90
17154;DHT22;8692;52.164;7.558;2024-03-02T03:50:07;6.00;99.90
17154;DHT22;8692;52.164;7.558;2024-03-02T03:52:35;6.00;99.90
17154;DHT22;8692;52.164;7.558;2024-03-02T03:55:04;6.00;99.90
17154;DHT22;8692;52.164;7.558;2024-03-02T03:57:33;5.90;99.90
17154;DHT22;8692;52.164;7.558;2024-03-02T04:00:01;6.00;99.90
17154;DHT22;8692;52.164;7.558;2024-03-02T04:02:37;6.00;99.90
17154;DHT22;8692;52.164;7.558;2024-03-02T04:05:07;6.00;99.90
17154;DHT22;8692;52.164;7.558;2024-03-02T04:07:38;6.00;99.90
17154;DHT22;8692;52.164;7.558;2024-03-02T04:10:08;6.00;99.90
17154;DHT22;8692;52.164;7.558;2024-03-02T04:12:37;6.00;99.90
17154;DHT22;8692;52.164;7.558;2024-03-02T04:15:05;5.90;99.90
17154;DHT22;8692;52.164;7.558;2024-03-02T04:17:33;5.90;99.90
17154;DHT22;8692;52.164;7.558;2024-03-02T04:20:02;6.00;99.90
17154;DHT22;8692;52.164;7.558;2024-03-02T04:22:34;5.90;99.90
17154;DHT22;8692;52.164;7.558;2024-03-02T04:25:03;5.90;99.90
17154;DHT22;8692;52.164;7.558;2024-03-02T04:27:32;5.90;99.90
17154;DHT22;8692;52.164;7.558;2024-03-02T04:30:00;5.90;99.90
17154;DHT22;8692;52.164;7.558;2024-03-02T04:32:28;6.00;99.90
17154;DHT22;8692;52.164;7.558;2024-03-02T04:34:56;5.90;99.90
17154;DHT22;8692;52.164;7.558;2024-03-02T04:37:25;5.90;99.90
17154;DHT22;8692;52.164;7.558;2024-03-02T04:39:54;5.90;99.90
17154;DHT22;8692;52.164;7.558;2024-03-02T04:42:21;5.90;99.90
17154;DHT22;8692;52.164;7.558;2024-03-02T04:44:49;5.90;99.90
17154;DHT22;8692;52.164;7.558;2024-03-02T04:47:17;5.90;99.90
17154;DHT22;8692;52.164;7.558;2024-03-02T04:49:45;5.90;99.90
17154;DHT22;8692;52.164;7.558;2024-03-02T04:52:13;5.90;99.90
17154;DHT22;8692;52.164;7.558;2024-03-02T04:54:41;5.90;99.90
17154;DHT22;8692;52.164;7.558;2024-03-02T04:57:24;5.90;99.90
17154;DHT22;8692;52.164;7.558;2024-03-02T04:59:53;5.90;99.90
17154;DHT22;8692;52.164;7.558;2024-03-02T05:02:20;5.90;99.90
17154;DHT22;8692;52.164;7.558;2024-03-02T05:04:48;5.90;99.90
17154;DHT22;8692;52.164;7.558;2024-03-02T05:07:16;5.80;99.90
17154;DHT22;8692;52.164;7.558;2024-03-02T05:09:44;5.90;99.90
17154;DHT22;8692;52.164;7.558;2024-03-02T05:12:14;5.80;99.90
17154;DHT22;8692;52.164;7.558;2024-03-02T05:15:15;5.80;99.90
17154;DHT22;8692;52.164;7.558;2024-03-02T05:17:43;5.80;99.90
17154;DHT22;8692;52.164;7.558;2024-03-02T05:20:11;5.70;99.90
17154;DHT22;8692;52.164;7.558;2024-03-02T05:22:39;5.70;99.90
17154;DHT22;8692;52.164;7.558;2024-03-02T05:25:08;5.70;99.90
17154;DHT22;8692;52.164;7.558;2024-03-02T05:27:36;5.70;99.90
17154;DHT22;8692;52.164;7.558;2024-03-02T05:30:05;5.70;99.90
17154;DHT22;8692;52.164;7.558;2024-03-02T05:32:35;5.70;99.90
17154;DHT22;8692;52.164;7.558;2024-03-02T05:35:04;5.60;99.90
17154;DHT22;8692;52.164;7.558;2024-03-02T05:37:33;5.60;99.90
17154;DHT22;8692;52.164;7.558;2024-03-02T05:40:01;5.60;99.90
17154;DHT22;8692;52.164;7.558;2024-03-02T05:42:29;5.60;99.90
17154;DHT22;8692;52.164;7.558;2024-03-02T05:44:57;5.60;99.90
17154;DHT22;8692;52.164;7.558;2024-03-02T05:47:25;5.60;99.90
17154;DHT22;8692;52.164;7.558;2024-03-02T05:49:55;5.50;99.90
17154;DHT22;8692;52.164;7.558;2024-03-02T05:52:23;5.50;99.90
17154;DHT22;8692;52.164;7.558;2024-03-02T05:54:51;5.50;99.90
17154;DHT22;8692;52.164;7.558;2024-03-02T05:57:19;5.50;99.90
17154;DHT22;8692;52.164;7.558;2024-03-02T06:00:00;5.50;99.90
17154;DHT22;8692;52.164;7.558;2024-03-02T06:02:39;5.40;99.90
17154;DHT22;8692;52.164;7.558;2024-03-02T06:05:08;5.40;99.90
17154;DHT22;8692;52.164;7.558;2024-03-02T06:07:36;5.40;99.90
17154;DHT22;8692;52.164;7.558;2024-03-02T06:10:05;5.30;99.90
17154;DHT22;8692;52.164;7.558;2024-03-02T06:12:38;5.30;99.90
17154;DHT22;8692;52.164;7.558;2024-03-02T06:15:06;5.30;99.90
17154;DHT22;8692;52.164;7.558;2024-03-02T06:17:35;5.40;99.90
17154;DHT22;8692;52.164;7.558;2024-03-02T06:20:04;5.40;99.90
17154;DHT22;8692;52.164;7.558;2024-03-02T06:22:36;5.30;99.90
17154;DHT22;8692;52.164;7.558;2024-03-02T06:25:04;5.40;99.90
17154;DHT22;8692;52.164;7.558;2024-03-02T06:27:32;5.40;99.90
17154;DHT22;8692;52.164;7.558;2024-03-02T06:29:59;5.40;99.90
17154;DHT22;8692;52.164;7.558;2024-03-02T06:32:27;5.40;99.90
17154;DHT22;8692;52.164;7.558;2024-03-02T06:34:55;5.40;99.90
17154;DHT22;8692;52.164;7.558;2024-03-02T06:37:23;5.40;99.90
17154;DHT22;8692;52.164;7.558;2024-03-02T06:39:53;5.40;99.90
17154;DHT22;8692;52.164;7.558;2024-03-02T06:42:21;5.40;99.90
17154;DHT22;8692;52.164;7.558;2024-03-02T06:44:49;5.40;99.90
17154;DHT22;8692;52.164;7.558;2024-03-02T06:47:17;5.40;99.90
17154;DHT22;8692;52.164;7.558;2024-03-02T06:49:47;5.40;99.90
17154;DHT22;8692;52.164;7.558;2024-03-02T06:52:15;5.40;99.90
17154;DHT22;8692;52.164;7.558;2024-03-02T06:54:43;5.40;99.90
17154;DHT22;8692;52.164;7.558;2024-03-02T06:57:12;5.40;99.90
17154;DHT22;8692;52.164;7.558;2024-03-02T06:59:40;5.40;99.90
17154;DHT22;8692;52.164;7.558;2024-03-02T07:02:08;5.40;99.90
17154;DHT22;8692;52.164;7.558;2024-03-02T07:04:36;5.40;99.90
17154;DHT22;8692;52.164;7.558;2024-03-02T07:07:04;5.40;99.90
17154;DHT22;8692;52.164;7.558;2024-03-02T07:09:32;5.40;99.90
17154;DHT22;8692;52.164;7.558;2024-03-02T07:12:01;5.40;99.90
17154;DHT22;8692;52.164;7.558;2024-03-02T07:14:30;5.40;99.90
17154;DHT22;8692;52.164;7.558;2024-03-02T07:17:12;5.40;99.90
17154;DHT22;8692;52.164;7.558;2024-03-02T07:19:40;5.50;99.90
17154;DHT22;8692;52.164;7.558;2024-03-02T07:22:08;5.50;99.90
17154;DHT22;8692;52.164;7.558;2024-03-02T07:24:39;5.60;99.90
17154;DHT22;8692;52.164;7.558;2024-03-02T07:27:08;5.60;99.90
17154;DHT22;8692;52.164;7.558;2024-03-02T07:29:39;5.70;99.90
17154;DHT22;8692;52.164;7.558;2024-03-02T07:32:08;5.70;99.90
17154;DHT22;8692;52.164;7.558;2024-03-02T07:34:37;5.80;99.90
17154;DHT22;8692;52.164;7.558;2024-03-02T07:37:05;5.80;99.90
17154;DHT22;8692;52.164;7.558;2024-03-02T07:39:33;5.90;99.90
17154;DHT22;8692;52.164;7.558;2024-03-02T07:42:01;5.90;99.90
17154;DHT22;8692;52.164;7.558;2024-03-02T07:44:29;5.90;99.90
17154;DHT22;8692;52.164;7.558;2024-03-02T07:46:58;6.00;99.90
17154;DHT22;8692;52.164;7.558;2024-03-02T07:49:27;6.10;99.90
17154;DHT22;8692;52.164;7.558;2024-03-02T07:51:55;6.10;99.90
17154;DHT22;8692;52.164;7.558;2024-03-02T07:54:23;6.20;99.90
17154;DHT22;8692;52.164;7.558;2024-03-02T07:56:51;6.30;99.90
17154;DHT22;8692;52.164;7.558;2024-03-02T07:59:19;6.40;99.90
17154;DHT22;8692;52.164;7.558;2024-03-02T08:01:49;6.50;99.90
17154;DHT22;8692;52.164;7.558;2024-03-02T08:04:19;6.50;99.90
17154;DHT22;8692;52.164;7.558;2024-03-02T08:06:47;6.60;99.90
17154;DHT22;8692;52.164;7.558;2024-03-02T08:09:15;6.70;99.90
17154;DHT22;8692;52.164;7.558;2024-03-02T08:11:43;6.70;99.90
17154;DHT22;8692;52.164;7.558;2024-03-02T08:14:11;6.80;99.90
17154;DHT22;8692;52.164;7.558;2024-03-02T08:16:40;6.90;99.90
17154;DHT22;8692;52.164;7.558;2024-03-02T08:19:08;6.90;99.90
17154;DHT22;8692;52.164;7.558;2024-03-02T08:21:37;7.10;99.90
17154;DHT22;8692;52.164;7.558;2024-03-02T08:24:06;7.10;99.90
17154;DHT22;8692;52.164;7.558;2024-03-02T08:26:34;7.30;99.90
17154;DHT22;8692;52.164;7.558;2024-03-02T08:29:02;7.40;99.90
17154;DHT22;8692;52.164;7.558;2024-03-02T08:31:30;7.40;99.90
17154;DHT22;8692;52.164;7.558;2024-03-02T08:33:58;7.50;99.90
17154;DHT22;8692;52.164;7.558;2024-03-02T08:36:27;7.60;99.90
17154;DHT22;8692;52.164;7.558;2024-03-02T08:38:56;7.70;99.90
17154;DHT22;8692;52.164;7.558;2024-03-02T08:41:24;7.80;99.90
17154;DHT22;8692;52.164;7.558;2024-03-02T08:43:52;7.90;99.90
17154;DHT22;8692;52.164;7.558;2024-03-02T08:46:21;7.90;99.90
17154;DHT22;8692;52.164;7.558;2024-03-02T08:48:49;8.00;99.90
17154;DHT22;8692;52.164;7.558;2024-03-02T08:51:17;8.10;99.90
17154;DHT22;8692;52.164;7.558;2024-03-02T08:53:45;8.20;99.90
17154;DHT22;8692;52.164;7.558;2024-03-02T08:56:14;8.30;99.90
17154;DHT22;8692;52.164;7.558;2024-03-02T08:58:43;8.40;99.90
17154;DHT22;8692;52.164;7.558;2024-03-02T09:01:11;8.50;99.90
17154;DHT22;8692;52.164;7.558;2024-03-02T09:03:39;8.60;99.90
17154;DHT22;8692;52.164;7.558;2024-03-02T09:06:07;8.70;99.90
17154;DHT22;8692;52.164;7.558;2024-03-02T09:08:35;8.80;99.90
17154;DHT22;8692;52.164;7.558;2024-03-02T09:11:04;8.90;99.90
17154;DHT22;8692;52.164;7.558;2024-03-02T09:13:33;8.90;99.90
17154;DHT22;8692;52.164;7.558;2024-03-02T09:16:01;9.10;99.90
17154;DHT22;8692;52.164;7.558;2024-03-02T09:18:29;9.10;99.90
17154;DHT22;8692;52.164;7.558;2024-03-02T09:20:57;9.20;99.90
17154;DHT22;8692;52.164;7.558;2024-03-02T09:23:25;9.30;99.90
17154;DHT22;8692;52.164;7.558;2024-03-02T09:25:53;9.40;99.90
17154;DHT22;8692;52.164;7.558;2024-03-02T09:28:21;9.50;99.90
17154;DHT22;8692;52.164;7.558;2024-03-02T09:30:49;9.70;99.90
17154;DHT22;8692;52.164;7.558;2024-03-02T09:33:18;9.80;99.90
17154;DHT22;8692;52.164;7.558;2024-03-02T09:35:49;9.90;99.90
17154;DHT22;8692;52.164;7.558;2024-03-02T09:38:19;10.00;99.90
17154;DHT22;8692;52.164;7.558;2024-03-02T09:40:48;10.10;99.90
17154;DHT22;8692;52.164;7.558;2024-03-02T09:43:17;10.20;99.90
17154;DHT22;8692;52.164;7.558;2024-03-02T09:45:45;10.30;99.90
17154;DHT22;8692;52.164;7.558;2024-03-02T09:48:14;10.40;99.90
17154;DHT22;8692;52.164;7.558;2024-03-02T09:50:45;10.50;99.90
17154;DHT22;8692;52.164;7.558;2024-03-02T09:53:14;10.60;99.90
17154;DHT22;8692;52.164;7.558;2024-03-02T09:55:45;10.60;99.90
17154;DHT22;8692;52.164;7.558;2024-03-02T09:58:14;10.70;99.90
17154;DHT22;8692;52.164;7.558;2024-03-02T10:00:42;10.80;99.90
17154;DHT22;8692;52.164;7.558;2024-03-02T10:03:12;10.90;99.90
17154;DHT22;8692;52.164;7.558;2024-03-02T10:05:42;11.00;99.90
17154;DHT22;8692;52.164;7.558;2024-03-02T10:08:10;11.10;99.90
17154;DHT22;8692;52.164;7.558;2024-03-02T10:10:39;11.20;99.90
17154;DHT22;8692;52.164;7.558;2024-03-02T10:13:09;11.20;99.90
17154;DHT22;8692;52.164;7.558;2024-03-02T10:15:39;11.20;99.90
17154;DHT22;8692;52.164;7.558;2024-03-02T10:18:09;11.20;99.90
17154;DHT22;8692;52.164;7.558;2024-03-02T10:20:38;11.30;99.90
17154;DHT22;8692;52.164;7.558;2024-03-02T10:23:11;11.40;99.90
17154;DHT22;8692;52.164;7.558;2024-03-02T10:25:40;11.40;99.90
17154;DHT22;8692;52.164;7.558;2024-03-02T10:28:23;11.50;99.90
17154;DHT22;8692;52.164;7.558;2024-03-02T10:30:51;11.50;99.90
17154;DHT22;8692;52.164;7.558;2024-03-02T10:33:20;11.60;99.90
17154;DHT22;8692;52.164;7.558;2024-03-02T10:35:49;11.60;99.90
17154;DHT22;8692;52.164;7.558;2024-03-02T10:38:19;11.60;99.90
17154;DHT22;8692;52.164;7.558;2024-03-02T10:40:47;11.70;99.90
17154;DHT22;8692;52.164;7.558;2024-03-02T10:43:17;11.70;99.90
17154;DHT22;8692;52.164;7.558;2024-03-02T10:45:49;11.80;99.90
17154;DHT22;8692;52.164;7.558;2024-03-02T10:48:17;11.90;99.90
17154;DHT22;8692;52.164;7.558;2024-03-02T10:50:46;11.90;99.90
17154;DHT22;8692;52.164;7.558;2024-03-02T10:53:14;12.00;99.90
17154;DHT22;8692;52.164;7.558;2024-03-02T10:55:43;12.10;99.90
17154;DHT22;8692;52.164;7.558;2024-03-02T10:58:12;12.20;99.90
17154;DHT22;8692;52.164;7.558;2024-03-02T11:00:44;12.30;99.90
17154;DHT22;8692;52.164;7.558;2024-03-02T11:03:13;12.20;99.90
17154;DHT22;8692;52.164;7.558;2024-03-02T11:05:44;12.20;99.90
17154;DHT22;8692;52.164;7.558;2024-03-02T11:08:13;12.20;99.90
17154;DHT22;8692;52.164;7.558;2024-03-02T11:10:49;12.30;99.90
17154;DHT22;8692;52.164;7.558;2024-03-02T11:13:22;12.40;99.90
17154;DHT22;8692;52.164;7.558;2024-03-02T11:15:55;12.50;99.90
17154;DHT22;8692;52.164;7.558;2024-03-02T11:18:23;12.50;99.90
17154;DHT22;8692;52.164;7.558;2024-03-02T11:20:52;12.60;99.90
17154;DHT22;8692;52.164;7.558;2024-03-02T11:23:31;12.70;99.90
17154;DHT22;8692;52.164;7.558;2024-03-02T11:26:19;12.70;99.90
17154;DHT22;8692;52.164;7.558;2024-03-02T11:28:48;12.80;99.90
17154;DHT22;8692;52.164;7.558;2024-03-02T11:31:15;12.80;99.90
17154;DHT22;8692;52.164;7.558;2024-03-02T11:33:44;12.90;99.90
17154;DHT22;8692;52.164;7.558;2024-03-02T11:36:12;12.90;99.90
17154;DHT22;8692;52.164;7.558;2024-03-02T11:38:43;13.00;99.90
17154;DHT22;8692;52.164;7.558;2024-03-02T11:41:12;13.10;99.90
17154;DHT22;8692;52.164;7.558;2024-03-02T11:43:42;13.10;99.90
17154;DHT22;8692;52.164;7.558;2024-03-02T11:46:12;13.20;99.90
17154;DHT22;8692;52.164;7.558;2024-03-02T11:48:40;13.20;99.90
17154;DHT22;8692;52.164;7.558;2024-03-02T11:51:08;13.30;99.90
17154;DHT22;8692;52.164;7.558;2024-03-02T11:53:39;13.30;99.90
17154;DHT22;8692;52.164;7.558;2024-03-02T11:56:09;13.30;99.90
17154;DHT22;8692;52.164;7.558;2024-03-02T11:58:39;13.30;99.90
17154;DHT22;8692;52.164;7.558;2024-03-02T12:01:10;13.40;99.90
17154;DHT22;8692;52.164;7.558;2024-03-02T12:03:39;13.40;99.90
17154;DHT22;8692;52.164;7.558;2024-03-02T12:06:07;13.60;99.90
17154;DHT22;8692;52.164;7.558;2024-03-02T12:08:36;13.60;99.90
17154;DHT22;8692;52.164;7.558;2024-03-02T12:11:04;13.70;99.90
17154;DHT22;8692;52.164;7.558;2024-03-02T12:13:33;13.70;99.90
17154;DHT22;8692;52.164;7.558;2024-03-02T12:16:02;13.80;99.90
17154;DHT22;8692;52.164;7.558;2024-03-02T12:18:31;13.80;99.70
17154;DHT22;8692;52.164;7.558;2024-03-02T12:20:59;13.80;99.60
17154;DHT22;8692;52.164;7.558;2024-03-02T12:23:29;13.80;99.90
17154;DHT22;8692;52.164;7.558;2024-03-02T12:25:57;13.90;99.00
17154;DHT22;8692;52.164;7.558;2024-03-02T12:28:26;14.00;98.80
17154;DHT22;8692;52.164;7.558;2024-03-02T12:30:54;13.90;98.50
17154;DHT22;8692;52.164;7.558;2024-03-02T12:33:22;14.00;98.70
17154;DHT22;8692;52.164;7.558;2024-03-02T12:35:52;14.10;97.70
17154;DHT22;8692;52.164;7.558;2024-03-02T12:38:20;14.10;99.40
17154;DHT22;8692;52.164;7.558;2024-03-02T12:40:52;14.10;97.10
17154;DHT22;8692;52.164;7.558;2024-03-02T12:43:20;14.10;98.70
17154;DHT22;8692;52.164;7.558;2024-03-02T12:45:50;14.20;99.20
17154;DHT22;8692;52.164;7.558;2024-03-02T12:48:18;14.20;98.50
17154;DHT22;8692;52.164;7.558;2024-03-02T12:50:46;14.30;97.60
17154;DHT22;8692;52.164;7.558;2024-03-02T12:53:16;14.30;98.10
17154;DHT22;8692;52.164;7.558;2024-03-02T12:55:45;14.40;99.60
17154;DHT22;8692;52.164;7.558;2024-03-02T12:58:19;14.50;99.00
17154;DHT22;8692;52.164;7.558;2024-03-02T13:00:48;14.60;99.50
17154;DHT22;8692;52.164;7.558;2024-03-02T13:03:18;14.70;98.40
17154;DHT22;8692;52.164;7.558;2024-03-02T13:05:50;14.70;97.80
17154;DHT22;8692;52.164;7.558;2024-03-02T13:08:21;14.70;96.90
17154;DHT22;8692;52.164;7.558;2024-03-02T13:10:49;14.70;96.40
17154;DHT22;8692;52.164;7.558;2024-03-02T13:13:17;14.70;95.30
17154;DHT22;8692;52.164;7.558;2024-03-02T13:15:45;14.70;95.10
17154;DHT22;8692;52.164;7.558;2024-03-02T13:18:14;14.80;95.40
17154;DHT22;8692;52.164;7.558;2024-03-02T13:20:42;14.80;94.40
17154;DHT22;8692;52.164;7.558;2024-03-02T13:23:10;14.80;94.40
17154;DHT22;8692;52.164;7.558;2024-03-02T13:25:39;14.80;95.10
17154;DHT22;8692;52.164;7.558;2024-03-02T13:28:07;14.90;95.50
17154;DHT22;8692;52.164;7.558;2024-03-02T13:30:35;14.90;96.10
17154;DHT22;8692;52.164;7.558;2024-03-02T13:33:04;14.90;96.70
17154;DHT22;8692;52.164;7.558;2024-03-02T13:35:32;14.90;97.40
17154;DHT22;8692;52.164;7.558;2024-03-02T13:38:00;14.90;96.50
17154;DHT22;8692;52.164;7.558;2024-03-02T13:40:28;14.80;97.10
17154;DHT22;8692;52.164;7.558;2024-03-02T13:43:03;14.80;97.80
17154;DHT22;8692;52.164;7.558;2024-03-02T13:45:31;14.80;97.20
17154;DHT22;8692;52.164;7.558;2024-03-02T13:48:00;14.70;97.10
17154;DHT22;8692;52.164;7.558;2024-03-02T13:50:30;14.60;97.50
17154;DHT22;8692;52.164;7.558;2024-03-02T13:52:59;14.60;98.00
17154;DHT22;8692;52.164;7.558;2024-03-02T13:55:27;14.70;98.30
17154;DHT22;8692;52.164;7.558;2024-03-02T13:57:55;14.60;98.20
17154;DHT22;8692;52.164;7.558;2024-03-02T14:00:25;14.60;97.40
17154;DHT22;8692;52.164;7.558;2024-03-02T14:02:53;14.60;97.60
17154;DHT22;8692;52.164;7.558;2024-03-02T14:05:21;14.50;97.20
17154;DHT22;8692;52.164;7.558;2024-03-02T14:07:49;14.50;97.50
17154;DHT22;8692;52.164;7.558;2024-03-02T14:10:17;14.40;97.40
17154;DHT22;8692;52.164;7.558;2024-03-02T14:12:49;14.40;98.00
17154;DHT22;8692;52.164;7.558;2024-03-02T14:15:17;14.40;98.60
17154;DHT22;8692;52.164;7.558;2024-03-02T14:17:49;14.40;99.00
17154;DHT22;8692;52.164;7.558;2024-03-02T14:20:17;14.50;99.10
17154;DHT22;8692;52.164;7.558;2024-03-02T14:22:49;14.40;98.30
17154;DHT22;8692;52.164;7.558;2024-03-02T14:25:17;14.40;96.80
17154;DHT22;8692;52.164;7.558;2024-03-02T14:27:45;14.40;96.30
17154;DHT22;8692;52.164;7.558;2024-03-02T14:30:33;14.50;96.70
17154;DHT22;8692;52.164;7.558;2024-03-02T14:33:03;14.50;95.80
17154;DHT22;8692;52.164;7.558;2024-03-02T14:35:31;14.50;96.00
17154;DHT22;8692;52.164;7.558;2024-03-02T14:37:59;14.40;95.90
17154;DHT22;8692;52.164;7.558;2024-03-02T14:40:27;14.40;96.40
17154;DHT22;8692;52.164;7.558;2024-03-02T14:42:56;14.50;95.80
17154;DHT22;8692;52.164;7.558;2024-03-02T14:45:24;14.50;96.40
17154;DHT22;8692;52.164;7.558;2024-03-02T14:47:52;14.50;96.90
17154;DHT22;8692;52.164;7.558;2024-03-02T14:50:22;14.50;97.40
17154;DHT22;8692;52.164;7.558;2024-03-02T14:52:50;14.40;97.20
17154;DHT22;8692;52.164;7.558;2024-03-02T14:55:18;14.50;98.30
17154;DHT22;8692;52.164;7.558;2024-03-02T14:57:46;14.50;98.40
17154;DHT22;8692;52.164;7.558;2024-03-02T15:00:15;14.50;98.80
17154;DHT22;8692;52.164;7.558;2024-03-02T15:02:43;14.50;98.30
17154;DHT22;8692;52.164;7.558;2024-03-02T15:05:11;14.50;98.80
17154;DHT22;8692;52.164;7.558;2024-03-02T15:07:40;14.50;98.30
17154;DHT22;8692;52.164;7.558;2024-03-02T15:10:08;14.40;98.60
17154;DHT22;8692;52.164;7.558;2024-03-02T15:12:37;14.40;98.60
17154;DHT22;8692;52.164;7.558;2024-03-02T15:15:06;14.30;98.90
17154;DHT22;8692;52.164;7.558;2024-03-02T15:17:34;14.30;98.80
17154;DHT22;8692;52.164;7.558;2024-03-02T15:20:03;14.30;99.90
17154;DHT22;8692;52.164;7.558;2024-03-02T15:22:34;14.30;99.60
17154;DHT22;8692;52.164;7.558;2024-03-02T15:25:04;14.30;99.10
17154;DHT22;8692;52.164;7.558;2024-03-02T15:27:32;14.20;99.10
17154;DHT22;8692;52.164;7.558;2024-03-02T15:30:00;14.20;99.50
17154;DHT22;8692;52.164;7.558;2024-03-02T15:32:28;14.20;99.40
17154;DHT22;8692;52.164;7.558;2024-03-02T15:34:56;14.20;99.60
17154;DHT22;8692;52.164;7.558;2024-03-02T15:37:24;14.30;98.70
17154;DHT22;8692;52.164;7.558;2024-03-02T15:39:52;14.30;98.10
17154;DHT22;8692;52.164;7.558;2024-03-02T15:42:21;14.30;97.90
17154;DHT22;8692;52.164;7.558;2024-03-02T15:44:50;14.30;98.50
17154;DHT22;8692;52.164;7.558;2024-03-02T15:47:20;14.30;97.30
17154;DHT22;8692;52.164;7.558;2024-03-02T15:49:48;14.30;96.40
17154;DHT22;8692;52.164;7.558;2024-03-02T15:52:16;14.30;96.60
17154;DHT22;8692;52.164;7.558;2024-03-02T15:54:45;14.30;96.70
17154;DHT22;8692;52.164;7.558;2024-03-02T15:57:13;14.20;97.30
17154;DHT22;8692;52.164;7.558;2024-03-02T15:59:43;14.20;96.60
17154;DHT22;8692;52.164;7.558;2024-03-02T16:02:11;14.20;96.30
17154;DHT22;8692;52.164;7.558;2024-03-02T16:04:39;14.20;96.10
17154;DHT22;8692;52.164;7.558;2024-03-02T16:07:08;14.10;96.30